sensor_id;sensor_type;location;lat;lon;timestamp;pressure;altitude;pressure_sealevel;temperature;humidity
13348;BME280;6743;49.934;9.138;2023-05-20T00:02:16;100738.63;;;15.18;100.00
13348;BME280;6743;49.934;9.138;2023-05-20T00:04:42;100731.63;;;15.17;100.00
13348;BME280;6743;49.934;9.138;2023-05-20T00:07:08;100734.31;;;15.17;100.00
13348;BME280;6743;49.934;9.138;2023-05-20T00:09:34;100737.97;;;15.16;100.00
13348;BME280;6743;49.934;9.138;2023-05-20T00:12:00;100737.97;;;15.16;100.00
13348;BME280;6743;49.934;9.138;2023-05-20T00:14:27;100734.69;;;15.14;100.00
13348;BME280;6743;49.934;9.138;2023-05-20T00:16:53;100734.84;;;15.12;100.00
13348;BME280;6743;49.934;9.138;2023-05-20T00:19:19;100744.25;;;15.08;100.00
13348;BME280;6743;49.934;9.138;2023-05-20T00:21:45;100739.94;;;15.07;100.00
13348;BME280;6743;49.934;9.138;2023-05-20T00:24:11;100731.59;;;15.02;100.00
13348;BME280;6743;49.934;9.138;2023-05-20T00:26:37;100735.75;;;15.05;100.00
13348;BME280;6743;49.934;9.138;2023-05-20T00:29:03;100746.28;;;15.06;100.00
13348;BME280;6743;49.934;9.138;2023-05-20T00:31:29;100737.59;;;15.04;100.00
13348;BME280;6743;49.934;9.138;2023-05-20T00:33:56;100741.78;;;15.07;100.00
13348;BME280;6743;49.934;9.138;2023-05-20T00:36:22;100734.44;;;15.01;100.00
13348;BME280;6743;49.934;9.138;2023-05-20T00:38:48;100729.59;;;15.04;100.00
13348;BME280;6743;49.934;9.138;2023-05-20T00:41:14;100734.44;;;15.01;100.00
13348;BME280;6743;49.934;9.138;2023-05-20T00:43:40;100735.28;;;15.01;100.00
13348;BME280;6743;49.934;9.138;2023-05-20T00:46:06;100728.94;;;15.02;100.00
13348;BME280;6743;49.934;9.138;2023-05-20T00:48:39;100725.81;;;14.98;100.00
13348;BME280;6743;49.934;9.138;2023-05-20T00:51:06;100706.06;;;14.85;100.00
13348;BME280;6743;49.934;9.138;2023-05-20T00:53:33;100719.63;;;14.98;100.00
13348;BME280;6743;49.934;9.138;2023-05-20T00:56:00;100721.47;;;14.97;100.00
13348;BME280;6743;49.934;9.138;2023-05-20T00:58:27;100718.97;;;14.96;100.00
13348;BME280;6743;49.934;9.138;2023-05-20T01:00:53;100709.84;;;14.90;100.00
13348;BME280;6743;49.934;9.138;2023-05-20T01:03:20;100711.34;;;14.93;100.00
13348;BME280;6743;49.934;9.138;2023-05-20T01:05:46;100715.66;;;14.94;100.00
13348;BME280;6743;49.934;9.138;2023-05-20T01:08:13;100717.31;;;14.95;100.00
13348;BME280;6743;49.934;9.138;2023-05-20T01:10:41;100713.19;;;14.92;100.00
13348;BME280;6743;49.934;9.138;2023-05-20T01:13:17;100716.31;;;14.96;100.00
13348;BME280;6743;49.934;9.138;2023-05-20T01:15:45;100720.62;;;14.97;100.00
13348;BME280;6743;49.934;9.138;2023-05-20T01:18:13;100722.47;;;14.96;100.00
13348;BME280;6743;49.934;9.138;2023-05-20T01:20:43;100720.28;;;15.00;100.00
13348;BME280;6743;49.934;9.138;2023-05-20T01:23:11;100715.13;;;14.98;100.00
13348;BME280;6743;49.934;9.138;2023-05-20T01:25:36;100711.63;;;14.98;100.00
13348;BME280;6743;49.934;9.138;2023-05-20T01:28:03;100705.06;;;15.01;100.00
13348;BME280;6743;49.934;9.138;2023-05-20T01:30:38;100700.94;;;14.98;100.00
13348;BME280;6743;49.934;9.138;2023-05-20T01:33:10;100706.62;;;14.95;100.00
13348;BME280;6743;49.934;9.138;2023-05-20T01:35:37;100710.12;;;14.95;100.00
13348;BME280;6743;49.934;9.138;2023-05-20T01:38:05;100709.13;;;14.96;100.00
13348;BME280;6743;49.934;9.138;2023-05-20T01:40:33;100708.47;;;14.94;100.00
13348;BME280;6743;49.934;9.138;2023-05-20T01:43:00;100707.63;;;14.94;100.00
13348;BME280;6743;49.934;9.138;2023-05-20T01:45:27;100700.00;;;14.91;100.00
13348;BME280;6743;49.934;9.138;2023-05-20T01:47:53;100700.00;;;14.91;100.00
13348;BME280;6743;49.934;9.138;2023-05-20T01:50:20;100697.50;;;14.89;100.00
13348;BME280;6743;49.934;9.138;2023-05-20T01:52:46;100697.34;;;14.91;100.00
13348;BME280;6743;49.934;9.138;2023-05-20T01:55:13;100699.53;;;14.87;100.00
13348;BME280;6743;49.934;9.138;2023-05-20T01:57:40;100703.47;;;14.77;100.00
13348;BME280;6743;49.934;9.138;2023-05-20T02:00:07;100698.03;;;14.70;100.00
13348;BME280;6743;49.934;9.138;2023-05-20T02:02:34;100691.91;;;14.62;100.00
13348;BME280;6743;49.934;9.138;2023-05-20T02:05:00;100696.50;;;14.53;100.00
13348;BME280;6743;49.934;9.138;2023-05-20T02:07:25;100695.66;;;14.52;100.00
13348;BME280;6743;49.934;9.138;2023-05-20T02:09:51;100701.19;;;14.51;100.00
13348;BME280;6743;49.934;9.138;2023-05-20T02:12:17;100698.03;;;14.47;100.00
13348;BME280;6743;49.934;9.138;2023-05-20T02:14:45;100680.56;;;14.45;100.00
13348;BME280;6743;49.934;9.138;2023-05-20T02:17:11;100690.87;;;14.48;100.00
13348;BME280;6743;49.934;9.138;2023-05-20T02:19:38;100688.19;;;14.48;100.00
13348;BME280;6743;49.934;9.138;2023-05-20T02:22:05;100679.72;;;14.44;100.00
13348;BME280;6743;49.934;9.138;2023-05-20T02:24:31;100685.69;;;14.46;100.00
13348;BME280;6743;49.934;9.138;2023-05-20T02:26:57;100684.69;;;14.47;100.00
13348;BME280;6743;49.934;9.138;2023-05-20T02:29:23;100683.41;;;14.43;100.00
13348;BME280;6743;49.934;9.138;2023-05-20T02:31:50;100684.59;;;14.41;100.00
13348;BME280;6743;49.934;9.138;2023-05-20T02:34:16;100684.28;;;14.36;100.00
13348;BME280;6743;49.934;9.138;2023-05-20T02:36:42;100654.75;;;14.14;100.00
13348;BME280;6743;49.934;9.138;2023-05-20T02:39:08;100678.81;;;14.29;100.00
13348;BME280;6743;49.934;9.138;2023-05-20T02:41:34;100685.34;;;14.27;100.00
13348;BME280;6743;49.934;9.138;2023-05-20T02:44:00;100696.84;;;14.27;100.00
13348;BME280;6743;49.934;9.138;2023-05-20T02:46:26;100681.00;;;14.26;100.00
13348;BME280;6743;49.934;9.138;2023-05-20T02:48:53;100681.19;;;14.24;100.00
13348;BME280;6743;49.934;9.138;2023-05-20T02:51:19;100683.22;;;14.22;100.00
13348;BME280;6743;49.934;9.138;2023-05-20T02:53:45;100681.53;;;14.21;100.00
13348;BME280;6743;49.934;9.138;2023-05-20T02:56:12;100676.19;;;14.21;100.00
13348;BME280;6743;49.934;9.138;2023-05-20T02:58:38;100676.53;;;14.18;100.00
13348;BME280;6743;49.934;9.138;2023-05-20T03:01:04;100672.03;;;14.18;100.00
13348;BME280;6743;49.934;9.138;2023-05-20T03:03:31;100665.88;;;14.18;100.00
13348;BME280;6743;49.934;9.138;2023-05-20T03:05:58;100669.56;;;14.17;100.00
13348;BME280;6743;49.934;9.138;2023-05-20T03:08:24;100666.06;;;14.16;100.00
13348;BME280;6743;49.934;9.138;2023-05-20T03:10:50;100662.25;;;14.11;100.00
13348;BME280;6743;49.934;9.138;2023-05-20T03:13:16;100661.63;;;14.09;100.00
13348;BME280;6743;49.934;9.138;2023-05-20T03:15:42;100664.91;;;14.11;100.00
13348;BME280;6743;49.934;9.138;2023-05-20T03:18:10;100663.91;;;14.12;100.00
13348;BME280;6743;49.934;9.138;2023-05-20T03:20:38;100664.28;;;14.09;100.00
13348;BME280;6743;49.934;9.138;2023-05-20T03:23:06;100667.28;;;14.06;100.00
13348;BME280;6743;49.934;9.138;2023-05-20T03:25:32;100679.19;;;14.03;100.00
13348;BME280;6743;49.934;9.138;2023-05-20T03:27:59;100669.00;;;13.99;100.00
13348;BME280;6743;49.934;9.138;2023-05-20T03:30:25;100671.69;;;13.99;100.00
13348;BME280;6743;49.934;9.138;2023-05-20T03:32:52;100662.22;;;13.96;100.00
13348;BME280;6743;49.934;9.138;2023-05-20T03:35:18;100666.88;;;13.94;100.00
13348;BME280;6743;49.934;9.138;2023-05-20T03:37:44;100668.72;;;13.94;100.00
13348;BME280;6743;49.934;9.138;2023-05-20T03:40:11;100679.84;;;13.97;100.00
13348;BME280;6743;49.934;9.138;2023-05-20T03:42:37;100680.50;;;13.99;100.00
13348;BME280;6743;49.934;9.138;2023-05-20T03:45:04;100673.50;;;13.98;100.00
13348;BME280;6743;49.934;9.138;2023-05-20T03:47:31;100679.69;;;13.99;100.00
13348;BME280;6743;49.934;9.138;2023-05-20T03:49:57;100675.56;;;13.96;100.00
13348;BME280;6743;49.934;9.138;2023-05-20T03:52:23;100675.84;;;14.01;100.00
13348;BME280;6743;49.934;9.138;2023-05-20T03:54:49;100671.16;;;14.03;100.00
13348;BME280;6743;49.934;9.138;2023-05-20T03:57:15;100663.16;;;14.03;100.00
13348;BME280;6743;49.934;9.138;2023-05-20T03:59:41;100662.34;;;14.03;100.00
13348;BME280;6743;49.934;9.138;2023-05-20T04:02:08;100668.50;;;14.03;100.00
13348;BME280;6743;49.934;9.138;2023-05-20T04:04:34;100671.97;;;14.04;100.00
13348;BME280;6743;49.934;9.138;2023-05-20T04:07:00;100675.69;;;14.03;100.00
13348;BME280;6743;49.934;9.138;2023-05-20T04:09:27;100672.69;;;13.98;100.00
13348;BME280;6743;49.934;9.138;2023-05-20T04:11:53;100676.00;;;14.00;100.00
13348;BME280;6743;49.934;9.138;2023-05-20T04:14:20;100678.84;;;13.98;100.00
13348;BME280;6743;49.934;9.138;2023-05-20T04:16:46;100674.00;;;14.02;100.00
13348;BME280;6743;49.934;9.138;2023-05-20T04:19:12;100664.69;;;13.98;100.00
13348;BME280;6743;49.934;9.138;2023-05-20T04:21:38;100674.34;;;13.99;100.00
13348;BME280;6743;49.934;9.138;2023-05-20T04:24:05;100692.03;;;14.00;100.00
13348;BME280;6743;49.934;9.138;2023-05-20T04:26:31;100679.69;;;13.99;100.00
13348;BME280;6743;49.934;9.138;2023-05-20T04:28:58;100669.19;;;13.97;100.00
13348;BME280;6743;49.934;9.138;2023-05-20T04:31:26;100683.34;;;13.98;100.00
13348;BME280;6743;49.934;9.138;2023-05-20T04:33:52;100677.19;;;13.97;100.00
13348;BME280;6743;49.934;9.138;2023-05-20T04:36:18;100676.56;;;13.95;100.00
13348;BME280;6743;49.934;9.138;2023-05-20T04:38:44;100675.34;;;13.98;100.00
13348;BME280;6743;49.934;9.138;2023-05-20T04:41:12;100681.34;;;14.00;100.00
13348;BME280;6743;49.934;9.138;2023-05-20T04:43:38;100678.97;;;14.05;100.00
13348;BME280;6743;49.934;9.138;2023-05-20T04:46:04;100680.81;;;14.04;100.00
13348;BME280;6743;49.934;9.138;2023-05-20T04:48:34;100677.50;;;14.02;100.00
13348;BME280;6743;49.934;9.138;2023-05-20T04:51:00;100673.19;;;14.01;100.00
13348;BME280;6743;49.934;9.138;2023-05-20T04:53:26;100674.63;;;14.04;100.00
13348;BME280;6743;49.934;9.138;2023-05-20T04:55:55;100669.78;;;14.07;100.00
13348;BME280;6743;49.934;9.138;2023-05-20T04:58:21;100667.59;;;14.11;100.00
13348;BME280;6743;49.934;9.138;2023-05-20T05:00:49;100662.56;;;14.16;100.00
13348;BME280;6743;49.934;9.138;2023-05-20T05:03:16;100662.19;;;14.19;100.00
13348;BME280;6743;49.934;9.138;2023-05-20T05:05:43;100654.50;;;14.24;100.00
13348;BME280;6743;49.934;9.138;2023-05-20T05:08:09;100661.31;;;14.27;100.00
13348;BME280;6743;49.934;9.138;2023-05-20T05:10:36;100658.47;;;14.28;100.00
13348;BME280;6743;49.934;9.138;2023-05-20T05:13:02;100658.75;;;14.33;100.00
13348;BME280;6743;49.934;9.138;2023-05-20T05:15:28;100652.06;;;14.37;100.00
13348;BME280;6743;49.934;9.138;2023-05-20T05:17:55;100657.72;;;14.42;100.00
13348;BME280;6743;49.934;9.138;2023-05-20T05:20:21;100646.50;;;14.47;100.00
13348;BME280;6743;49.934;9.138;2023-05-20T05:22:49;100640.63;;;14.51;100.00
13348;BME280;6743;49.934;9.138;2023-05-20T05:25:19;100646.25;;;14.56;100.00
13348;BME280;6743;49.934;9.138;2023-05-20T05:27:45;100640.34;;;14.61;100.00
13348;BME280;6743;49.934;9.138;2023-05-20T05:30:13;100648.62;;;14.66;100.00
13348;BME280;6743;49.934;9.138;2023-05-20T05:32:39;100640.09;;;14.71;100.00
13348;BME280;6743;49.934;9.138;2023-05-20T05:35:08;100648.41;;;14.76;100.00
13348;BME280;6743;49.934;9.138;2023-05-20T05:37:34;100648.88;;;14.79;100.00
13348;BME280;6743;49.934;9.138;2023-05-20T05:40:01;100648.66;;;14.81;100.00
13348;BME280;6743;49.934;9.138;2023-05-20T05:42:28;100647.47;;;14.83;100.00
13348;BME280;6743;49.934;9.138;2023-05-20T05:44:54;100653.66;;;14.84;100.00
13348;BME280;6743;49.934;9.138;2023-05-20T05:47:20;100650.59;;;14.87;100.00
13348;BME280;6743;49.934;9.138;2023-05-20T05:49:46;100648.41;;;14.90;100.00
13348;BME280;6743;49.934;9.138;2023-05-20T05:52:12;100642.72;;;14.93;100.00
13348;BME280;6743;49.934;9.138;2023-05-20T05:54:38;100641.06;;;14.92;100.00
13348;BME280;6743;49.934;9.138;2023-05-20T05:57:05;100638.00;;;14.95;100.00
13348;BME280;6743;49.934;9.138;2023-05-20T05:59:32;100640.84;;;14.94;100.00
13348;BME280;6743;49.934;9.138;2023-05-20T06:01:58;100632.31;;;14.98;100.00
13348;BME280;6743;49.934;9.138;2023-05-20T06:04:24;100646.50;;;14.99;100.00
13348;BME280;6743;49.934;9.138;2023-05-20T06:06:50;100646.94;;;15.03;100.00
13348;BME280;6743;49.934;9.138;2023-05-20T06:09:16;100644.75;;;15.06;100.00
13348;BME280;6743;49.934;9.138;2023-05-20T06:11:45;100645.00;;;15.11;100.00
13348;BME280;6743;49.934;9.138;2023-05-20T06:14:25;100626.66;;;15.08;100.00
13348;BME280;6743;49.934;9.138;2023-05-20T06:16:51;100635.25;;;15.18;100.00
13348;BME280;6743;49.934;9.138;2023-05-20T06:19:17;100624.63;;;15.25;100.00
13348;BME280;6743;49.934;9.138;2023-05-20T06:21:43;100631.06;;;15.30;100.00
13348;BME280;6743;49.934;9.138;2023-05-20T06:24:09;100626.81;;;15.36;100.00
13348;BME280;6743;49.934;9.138;2023-05-20T06:26:35;100615.75;;;15.39;100.00
13348;BME280;6743;49.934;9.138;2023-05-20T06:29:02;100624.69;;;15.46;100.00
13348;BME280;6743;49.934;9.138;2023-05-20T06:31:28;100632.16;;;15.51;100.00
13348;BME280;6743;49.934;9.138;2023-05-20T06:33:54;100632.66;;;15.54;100.00
13348;BME280;6743;49.934;9.138;2023-05-20T06:36:20;100619.87;;;15.56;100.00
13348;BME280;6743;49.934;9.138;2023-05-20T06:38:46;100621.56;;;15.57;100.00
13348;BME280;6743;49.934;9.138;2023-05-20T06:41:12;100623.03;;;15.60;100.00
13348;BME280;6743;49.934;9.138;2023-05-20T06:43:38;100629.22;;;15.60;100.00
13348;BME280;6743;49.934;9.138;2023-05-20T06:46:05;100621.25;;;15.67;100.00
13348;BME280;6743;49.934;9.138;2023-05-20T06:48:31;100616.16;;;15.72;100.00
13348;BME280;6743;49.934;9.138;2023-05-20T06:50:57;100614.97;;;15.74;100.00
13348;BME280;6743;49.934;9.138;2023-05-20T06:53:24;100621.22;;;15.82;100.00
13348;BME280;6743;49.934;9.138;2023-05-20T06:55:52;100610.34;;;15.83;100.00
13348;BME280;6743;49.934;9.138;2023-05-20T06:58:19;100618.62;;;15.88;100.00
13348;BME280;6743;49.934;9.138;2023-05-20T07:00:46;100613.91;;;15.90;100.00
13348;BME280;6743;49.934;9.138;2023-05-20T07:03:12;100614.72;;;15.91;100.00
13348;BME280;6743;49.934;9.138;2023-05-20T07:05:38;100615.16;;;15.94;100.00
13348;BME280;6743;49.934;9.138;2023-05-20T07:08:05;100614.16;;;15.95;100.00
13348;BME280;6743;49.934;9.138;2023-05-20T07:10:31;100614.16;;;15.95;100.00
13348;BME280;6743;49.934;9.138;2023-05-20T07:12:57;100621.19;;;15.96;100.00
13348;BME280;6743;49.934;9.138;2023-05-20T07:15:23;100625.28;;;15.99;100.00
13348;BME280;6743;49.934;9.138;2023-05-20T07:17:50;100621.22;;;16.03;100.00
13348;BME280;6743;49.934;9.138;2023-05-20T07:20:18;100627.03;;;16.06;100.00
13348;BME280;6743;49.934;9.138;2023-05-20T07:22:45;100613.50;;;16.14;100.00
13348;BME280;6743;49.934;9.138;2023-05-20T07:25:13;100614.78;;;16.19;100.00
13348;BME280;6743;49.934;9.138;2023-05-20T07:27:41;100609.47;;;16.25;100.00
13348;BME280;6743;49.934;9.138;2023-05-20T07:30:08;100609.16;;;16.35;100.00
13348;BME280;6743;49.934;9.138;2023-05-20T07:32:34;100605.28;;;16.37;100.00
13348;BME280;6743;49.934;9.138;2023-05-20T07:35:03;100607.72;;;16.39;100.00
13348;BME280;6743;49.934;9.138;2023-05-20T07:37:29;100593.72;;;16.37;100.00
13348;BME280;6743;49.934;9.138;2023-05-20T07:39:56;100600.16;;;16.42;100.00
13348;BME280;6743;49.934;9.138;2023-05-20T07:42:22;100598.94;;;16.45;100.00
13348;BME280;6743;49.934;9.138;2023-05-20T07:44:50;100601.22;;;16.48;100.00
13348;BME280;6743;49.934;9.138;2023-05-20T07:47:18;100600.00;;;16.50;100.00
13348;BME280;6743;49.934;9.138;2023-05-20T07:49:44;100598.16;;;16.51;100.00
13348;BME280;6743;49.934;9.138;2023-05-20T07:52:11;100595.09;;;16.54;100.00
13348;BME280;6743;49.934;9.138;2023-05-20T07:54:39;100579.41;;;16.51;100.00
13348;BME280;6743;49.934;9.138;2023-05-20T07:57:08;100591.66;;;16.60;100.00
13348;BME280;6743;49.934;9.138;2023-05-20T07:59:34;100586.34;;;16.67;100.00
13348;BME280;6743;49.934;9.138;2023-05-20T08:02:00;100577.28;;;16.68;100.00
13348;BME280;6743;49.934;9.138;2023-05-20T08:04:26;100584.28;;;16.69;100.00
13348;BME280;6743;49.934;9.138;2023-05-20T08:06:52;100576.91;;;16.71;100.00
13348;BME280;6743;49.934;9.138;2023-05-20T08:09:18;100580.22;;;16.73;100.00
13348;BME280;6743;49.934;9.138;2023-05-20T08:11:45;100577.97;;;16.76;100.00
13348;BME280;6743;49.934;9.138;2023-05-20T08:14:11;100583.97;;;16.78;100.00
13348;BME280;6743;49.934;9.138;2023-05-20T08:16:37;100578.19;;;16.81;100.00
13348;BME280;6743;49.934;9.138;2023-05-20T08:19:03;100583.59;;;16.88;100.00
13348;BME280;6743;49.934;9.138;2023-05-20T08:21:29;100585.50;;;16.94;100.00
13348;BME280;6743;49.934;9.138;2023-05-20T08:23:56;100577.69;;;16.99;100.00
13348;BME280;6743;49.934;9.138;2023-05-20T08:26:22;100584.50;;;17.08;100.00
13348;BME280;6743;49.934;9.138;2023-05-20T08:28:48;100581.66;;;17.16;100.00
13348;BME280;6743;49.934;9.138;2023-05-20T08:31:15;100579.84;;;17.23;100.00
13348;BME280;6743;49.934;9.138;2023-05-20T08:33:42;100571.63;;;17.31;100.00
13348;BME280;6743;49.934;9.138;2023-05-20T08:36:08;100584.41;;;17.36;100.00
13348;BME280;6743;49.934;9.138;2023-05-20T08:38:34;100566.91;;;17.33;100.00
13348;BME280;6743;49.934;9.138;2023-05-20T08:41:01;100576.81;;;17.40;100.00
13348;BME280;6743;49.934;9.138;2023-05-20T08:43:27;100579.31;;;17.41;100.00
13348;BME280;6743;49.934;9.138;2023-05-20T08:45:55;100572.09;;;17.42;100.00
13348;BME280;6743;49.934;9.138;2023-05-20T08:48:23;100571.03;;;17.43;100.00
13348;BME280;6743;49.934;9.138;2023-05-20T08:50:51;100567.75;;;17.47;100.00
13348;BME280;6743;49.934;9.138;2023-05-20T08:53:17;100578.50;;;17.54;100.00
13348;BME280;6743;49.934;9.138;2023-05-20T08:55:52;100569.84;;;17.58;100.00
13348;BME280;6743;49.934;9.138;2023-05-20T08:58:20;100579.19;;;17.62;100.00
13348;BME280;6743;49.934;9.138;2023-05-20T09:00:46;100579.59;;;17.66;100.00
13348;BME280;6743;49.934;9.138;2023-05-20T09:03:12;100566.00;;;17.74;100.00
13348;BME280;6743;49.934;9.138;2023-05-20T09:05:39;100566.00;;;17.81;100.00
13348;BME280;6743;49.934;9.138;2023-05-20T09:08:05;100566.41;;;17.84;100.00
13348;BME280;6743;49.934;9.138;2023-05-20T09:10:31;100561.69;;;17.93;100.00
13348;BME280;6743;49.934;9.138;2023-05-20T09:12:59;100555.09;;;17.95;100.00
13348;BME280;6743;49.934;9.138;2023-05-20T09:15:25;100551.97;;;17.98;100.00
13348;BME280;6743;49.934;9.138;2023-05-20T09:17:51;100540.84;;;18.01;100.00
13348;BME280;6743;49.934;9.138;2023-05-20T09:20:17;100539.59;;;18.04;100.00
13348;BME280;6743;49.934;9.138;2023-05-20T09:22:50;100535.47;;;18.08;100.00
13348;BME280;6743;49.934;9.138;2023-05-20T09:25:18;100531.75;;;18.09;100.00
13348;BME280;6743;49.934;9.138;2023-05-20T09:27:44;100534.00;;;18.19;100.00
13348;BME280;6743;49.934;9.138;2023-05-20T09:30:11;100529.25;;;18.21;100.00
13348;BME280;6743;49.934;9.138;2023-05-20T09:32:38;100522.66;;;18.23;100.00
13348;BME280;6743;49.934;9.138;2023-05-20T09:35:05;100530.91;;;18.22;100.00
13348;BME280;6743;49.934;9.138;2023-05-20T09:37:32;100535.06;;;18.24;100.00
13348;BME280;6743;49.934;9.138;2023-05-20T09:40:03;100530.72;;;18.23;100.00
13348;BME280;6743;49.934;9.138;2023-05-20T09:42:34;100541.03;;;18.26;100.00
13348;BME280;6743;49.934;9.138;2023-05-20T09:45:03;100530.06;;;18.34;100.00
13348;BME280;6743;49.934;9.138;2023-05-20T09:47:31;100522.81;;;18.41;100.00
13348;BME280;6743;49.934;9.138;2023-05-20T09:49:57;100535.22;;;18.49;100.00
13348;BME280;6743;49.934;9.138;2023-05-20T09:52:25;100531.53;;;18.57;100.00
13348;BME280;6743;49.934;9.138;2023-05-20T09:54:52;100528.78;;;18.70;100.00
13348;BME280;6743;49.934;9.138;2023-05-20T09:57:21;100542.00;;;18.78;100.00
13348;BME280;6743;49.934;9.138;2023-05-20T09:59:50;100522.75;;;18.81;100.00
13348;BME280;6743;49.934;9.138;2023-05-20T10:02:18;100526.50;;;18.80;100.00
13348;BME280;6743;49.934;9.138;2023-05-20T10:04:49;100518.03;;;18.76;100.00
13348;BME280;6743;49.934;9.138;2023-05-20T10:07:31;100515.31;;;18.83;100.00
13348;BME280;6743;49.934;9.138;2023-05-20T10:10:13;100518.63;;;18.85;100.00
13348;BME280;6743;49.934;9.138;2023-05-20T10:12:50;100510.53;;;18.92;100.00
13348;BME280;6743;49.934;9.138;2023-05-20T10:15:26;100504.94;;;18.93;100.00
13348;BME280;6743;49.934;9.138;2023-05-20T10:18:05;100492.50;;;18.99;100.00
13348;BME280;6743;49.934;9.138;2023-05-20T10:20:44;100500.75;;;19.04;100.00
13348;BME280;6743;49.934;9.138;2023-05-20T10:23:20;100503.62;;;19.09;100.00
13348;BME280;6743;49.934;9.138;2023-05-20T10:25:49;100499.84;;;19.16;100.00
13348;BME280;6743;49.934;9.138;2023-05-20T10:28:26;100503.16;;;19.18;100.00
13348;BME280;6743;49.934;9.138;2023-05-20T10:30:54;100492.00;;;19.21;100.00
13348;BME280;6743;49.934;9.138;2023-05-20T10:33:21;100492.38;;;19.25;100.00
13348;BME280;6743;49.934;9.138;2023-05-20T10:35:49;100504.97;;;19.31;100.00
13348;BME280;6743;49.934;9.138;2023-05-20T10:38:16;100494.03;;;19.26;100.00
13348;BME280;6743;49.934;9.138;2023-05-20T10:40:42;100497.06;;;19.36;100.00
13348;BME280;6743;49.934;9.138;2023-05-20T10:43:09;100495.38;;;19.42;100.00
13348;BME280;6743;49.934;9.138;2023-05-20T10:45:50;100491.84;;;19.48;100.00
13348;BME280;6743;49.934;9.138;2023-05-20T10:48:22;100487.63;;;19.58;100.00
13348;BME280;6743;49.934;9.138;2023-05-20T10:50:49;100497.94;;;19.68;100.00
13348;BME280;6743;49.934;9.138;2023-05-20T10:53:16;100486.94;;;19.70;100.00
13348;BME280;6743;49.934;9.138;2023-05-20T10:55:47;100463.91;;;19.74;100.00
13348;BME280;6743;49.934;9.138;2023-05-20T10:58:16;100470.97;;;19.75;100.00
13348;BME280;6743;49.934;9.138;2023-05-20T11:00:43;100473.25;;;19.71;100.00
13348;BME280;6743;49.934;9.138;2023-05-20T11:03:10;100456.31;;;19.64;100.00
13348;BME280;6743;49.934;9.138;2023-05-20T11:05:38;100462.88;;;19.75;100.00
13348;BME280;6743;49.934;9.138;2023-05-20T11:08:06;100460.97;;;19.82;100.00
13348;BME280;6743;49.934;9.138;2023-05-20T11:10:33;100458.41;;;19.87;100.00
13348;BME280;6743;49.934;9.138;2023-05-20T11:13:00;100470.47;;;19.84;100.00
13348;BME280;6743;49.934;9.138;2023-05-20T11:15:26;100450.19;;;19.82;100.00
13348;BME280;6743;49.934;9.138;2023-05-20T11:17:57;100447.91;;;19.79;100.00
13348;BME280;6743;49.934;9.138;2023-05-20T11:20:25;100444.41;;;19.78;100.00
13348;BME280;6743;49.934;9.138;2023-05-20T11:22:51;100449.38;;;19.81;100.00
13348;BME280;6743;49.934;9.138;2023-05-20T11:25:18;100442.94;;;19.82;100.00
13348;BME280;6743;49.934;9.138;2023-05-20T11:27:44;100454.53;;;19.83;100.00
13348;BME280;6743;49.934;9.138;2023-05-20T11:30:12;100452.00;;;19.88;100.00
13348;BME280;6743;49.934;9.138;2023-05-20T11:32:41;100453.44;;;19.90;100.00
13348;BME280;6743;49.934;9.138;2023-05-20T11:35:20;100452.53;;;19.96;100.00
13348;BME280;6743;49.934;9.138;2023-05-20T11:37:53;100451.25;;;19.99;100.00
13348;BME280;6743;49.934;9.138;2023-05-20T11:40:23;100439.63;;;20.05;100.00
13348;BME280;6743;49.934;9.138;2023-05-20T11:42:52;100443.31;;;20.11;100.00
13348;BME280;6743;49.934;9.138;2023-05-20T11:45:18;100439.94;;;20.15;100.00
13348;BME280;6743;49.934;9.138;2023-05-20T11:47:44;100434.94;;;20.19;100.00
13348;BME280;6743;49.934;9.138;2023-05-20T11:50:16;100437.16;;;20.22;100.00
13348;BME280;6743;49.934;9.138;2023-05-20T11:52:42;100438.22;;;20.21;100.00
13348;BME280;6743;49.934;9.138;2023-05-20T11:55:09;100435.72;;;20.19;100.00
13348;BME280;6743;49.934;9.138;2023-05-20T11:57:36;100420.19;;;20.21;100.00
13348;BME280;6743;49.934;9.138;2023-05-20T12:00:03;100421.97;;;20.27;100.00
13348;BME280;6743;49.934;9.138;2023-05-20T12:02:31;100430.75;;;20.41;100.00
13348;BME280;6743;49.934;9.138;2023-05-20T12:04:58;100424.31;;;20.42;100.00
13348;BME280;6743;49.934;9.138;2023-05-20T12:07:24;100431.50;;;20.48;100.00
13348;BME280;6743;49.934;9.138;2023-05-20T12:09:54;100420.28;;;20.51;100.00
13348;BME280;6743;49.934;9.138;2023-05-20T12:12:20;100422.69;;;20.59;100.00
13348;BME280;6743;49.934;9.138;2023-05-20T12:14:46;100409.47;;;20.69;100.00
13348;BME280;6743;49.934;9.138;2023-05-20T12:17:12;100414.13;;;20.80;100.00
13348;BME280;6743;49.934;9.138;2023-05-20T12:19:39;100412.06;;;20.94;100.00
13348;BME280;6743;49.934;9.138;2023-05-20T12:22:05;100414.19;;;21.04;100.00
13348;BME280;6743;49.934;9.138;2023-05-20T12:24:33;100399.34;;;21.13;100.00
13348;BME280;6743;49.934;9.138;2023-05-20T12:26:59;100404.28;;;21.16;100.00
13348;BME280;6743;49.934;9.138;2023-05-20T12:29:25;100402.91;;;21.25;100.00
13348;BME280;6743;49.934;9.138;2023-05-20T12:31:51;100404.78;;;21.25;100.00
13348;BME280;6743;49.934;9.138;2023-05-20T12:34:17;100404.44;;;21.21;100.00
13348;BME280;6743;49.934;9.138;2023-05-20T12:36:43;100405.12;;;21.16;100.00
13348;BME280;6743;49.934;9.138;2023-05-20T12:39:09;100399.06;;;21.21;100.00
13348;BME280;6743;49.934;9.138;2023-05-20T12:41:37;100396.47;;;21.26;100.00
13348;BME280;6743;49.934;9.138;2023-05-20T12:44:04;100391.25;;;21.43;100.00
13348;BME280;6743;49.934;9.138;2023-05-20T12:46:30;100394.50;;;21.45;100.00
13348;BME280;6743;49.934;9.138;2023-05-20T12:48:56;100388.53;;;21.54;100.00
13348;BME280;6743;49.934;9.138;2023-05-20T12:51:22;100386.91;;;21.65;100.00